Time;durP1;ratioP1;P1;durP2;ratioP2;P2;SDS_P1;SDS_P2;PMS_P1;PMS_P2;Temp;Humidity;BMP_temperature;BMP_pressure;BME280_temperature;BME280_humidity;BME280_pressure;Samples;Min_cycle;Max_cycle;Signal;HPM_P1;HPM_P2
2023/09/17 00:01:54;;;;;;;5.70;2.93;;;26.50;52.60;;;;;;5065621;27;89790;-57
2023/09/17 00:04:23;;;;;;;5.80;3.63;;;26.50;52.60;;;;;;5067787;27;89403;-57
2023/09/17 00:06:51;;;;;;;4.20;3.33;;;26.50;52.50;;;;;;5070501;27;88775;-56
2023/09/17 00:09:20;;;;;;;5.83;3.87;;;26.60;52.50;;;;;;5065456;27;89181;-57
2023/09/17 00:11:48;;;;;;;4.00;3.10;;;26.60;52.40;;;;;;5063258;27;89811;-57
2023/09/17 00:14:17;;;;;;;5.40;3.20;;;26.60;52.40;;;;;;5064059;27;89154;-56
2023/09/17 00:16:46;;;;;;;5.43;3.13;;;26.60;52.40;;;;;;5072876;27;89187;-56
2023/09/17 00:19:14;;;;;;;4.63;2.70;;;26.50;52.40;;;;;;5079500;27;87905;-57
2023/09/17 00:21:43;;;;;;;6.20;2.67;;;26.50;52.30;;;;;;5079964;27;90135;-56
2023/09/17 00:24:12;;;;;;;3.70;2.73;;;26.50;52.40;;;;;;5067126;27;89253;-57
2023/09/17 00:26:40;;;;;;;3.90;2.73;;;26.50;52.30;;;;;;5067714;27;90685;-58
2023/09/17 00:29:08;;;;;;;3.23;2.30;;;26.50;52.20;;;;;;5073365;27;87746;-58
2023/09/17 00:31:38;;;;;;;3.27;2.10;;;26.50;52.20;;;;;;5069294;27;89496;-57
2023/09/17 00:34:06;;;;;;;3.33;3.03;;;26.50;52.10;;;;;;5065155;27;89446;-57
2023/09/17 00:36:34;;;;;;;3.90;2.60;;;26.50;52.10;;;;;;5063953;27;89098;-57
2023/09/17 00:39:03;;;;;;;4.20;2.50;;;26.40;52.00;;;;;;5068194;27;87634;-57
2023/09/17 00:41:31;;;;;;;4.53;2.53;;;26.40;52.00;;;;;;5063127;27;89733;-58
2023/09/17 00:43:59;;;;;;;4.80;2.47;;;26.40;51.90;;;;;;5065937;27;90161;-57
2023/09/17 00:46:28;;;;;;;3.40;3.07;;;26.40;51.90;;;;;;5070270;27;89608;-56
2023/09/17 00:48:57;;;;;;;3.50;2.67;;;26.40;51.90;;;;;;5062483;27;89320;-56
2023/09/17 00:51:26;;;;;;;4.07;3.13;;;26.30;51.70;;;;;;5061364;27;89777;-57
2023/09/17 00:53:55;;;;;;;4.40;3.40;;;26.30;51.70;;;;;;5070594;27;88910;-57
2023/09/17 00:56:23;;;;;;;3.93;2.43;;;26.30;51.70;;;;;;5068237;27;88861;-57
2023/09/17 00:58:52;;;;;;;3.27;2.67;;;26.20;51.60;;;;;;5074464;27;87704;-56
2023/09/17 01:01:20;;;;;;;4.23;2.20;;;26.20;51.60;;;;;;5063242;27;89770;-57
2023/09/17 01:03:48;;;;;;;5.57;2.63;;;26.30;51.60;;;;;;5066378;27;89381;-57
2023/09/17 01:06:18;;;;;;;3.87;2.70;;;26.30;51.50;;;;;;5060319;27;88722;-57
2023/09/17 01:08:47;;;;;;;4.27;2.70;;;26.20;51.40;;;;;;5066700;27;89016;-57
2023/09/17 01:11:15;;;;;;;2.20;2.00;;;26.20;51.20;;;;;;5064140;27;89684;-57
2023/09/17 01:13:49;;;;;;;2.27;2.07;;;26.20;51.20;;;;;;5066599;27;89363;-57
2023/09/17 01:16:18;;;;;;;3.40;2.73;;;26.20;51.10;;;;;;5068804;27;88992;-56
2023/09/17 01:18:47;;;;;;;3.03;2.03;;;26.20;51.10;;;;;;5068478;27;88699;-56
2023/09/17 01:21:20;;;;;;;4.83;2.23;;;26.20;51.00;;;;;;5064158;27;88000;-57
2023/09/17 01:23:52;;;;;;;2.40;2.20;;;26.20;50.90;;;;;;5073326;27;88820;-57
2023/09/17 01:26:26;;;;;;;4.20;2.40;;;26.20;50.90;;;;;;5064356;27;89036;-56
2023/09/17 01:28:56;;;;;;;4.20;2.00;;;26.20;50.80;;;;;;5077588;27;87560;-57
2023/09/17 01:31:24;;;;;;;4.43;2.37;;;26.20;50.80;;;;;;5065163;27;89929;-57
2023/09/17 01:33:53;;;;;;;3.27;2.13;;;26.20;50.70;;;;;;5075628;27;90145;-57
2023/09/17 01:36:23;;;;;;;2.87;2.40;;;26.10;50.60;;;;;;5065956;27;88690;-57
2023/09/17 01:38:54;;;;;;;3.73;2.80;;;26.10;50.60;;;;;;5066436;27;88462;-57
2023/09/17 01:41:22;;;;;;;3.83;2.07;;;26.20;50.60;;;;;;5070282;27;89475;-57
2023/09/17 01:43:51;;;;;;;3.97;2.20;;;26.20;50.50;;;;;;5060044;27;89227;-57
2023/09/17 01:46:22;;;;;;;2.67;2.23;;;26.20;50.40;;;;;;5065801;27;88826;-57
2023/09/17 01:48:51;;;;;;;2.40;2.20;;;26.20;50.50;;;;;;5062714;27;88643;-56
2023/09/17 01:51:19;;;;;;;4.10;1.87;;;26.20;50.40;;;;;;5062838;27;89698;-56
2023/09/17 01:53:47;;;;;;;2.73;1.63;;;26.20;51.90;;;;;;5068992;27;89105;-56
2023/09/17 01:56:17;;;;;;;2.40;1.83;;;26.20;50.30;;;;;;5067918;27;87602;-57
2023/09/17 01:58:46;;;;;;;2.00;1.80;;;26.20;50.20;;;;;;5075420;27;88024;-57
2023/09/17 02:01:15;;;;;;;3.27;2.10;;;26.20;50.10;;;;;;5061415;27;89741;-57
2023/09/17 02:03:45;;;;;;;3.53;2.27;;;26.20;50.10;;;;;;5064362;27;89145;-57
2023/09/17 02:06:13;;;;;;;2.47;2.17;;;26.20;50.10;;;;;;5065078;27;88871;-57
2023/09/17 02:08:41;;;;;;;2.20;2.00;;;26.20;50.10;;;;;;5067772;27;88074;-57
2023/09/17 02:11:09;;;;;;;4.23;2.43;;;26.20;51.60;;;;;;5071794;27;89141;-57
2023/09/17 02:13:37;;;;;;;3.43;2.30;;;26.10;53.60;;;;;;5080702;27;89164;-56
2023/09/17 02:16:07;;;;;;;1.70;1.60;;;26.10;54.00;;;;;;5081050;27;88846;-57
2023/09/17 02:18:35;;;;;;;2.20;2.00;;;26.20;53.20;;;;;;5072590;27;88765;-57
2023/09/17 02:21:05;;;;;;;2.43;2.00;;;26.10;54.00;;;;;;5080973;27;89401;-58
2023/09/17 02:23:34;;;;;;;2.90;2.40;;;26.20;49.80;;;;;;5079298;27;90119;-57
2023/09/17 02:26:02;;;;;;;4.37;2.13;;;26.10;49.80;;;;;;5080530;27;89717;-57
2023/09/17 02:28:30;;;;;;;3.70;2.00;;;26.20;49.90;;;;;;5081401;27;87722;-56
2023/09/17 02:30:59;;;;;;;2.73;2.10;;;26.10;50.50;;;;;;5070777;27;89655;-57
2023/09/17 02:33:28;;;;;;;3.27;2.50;;;26.10;52.90;;;;;;5080563;27;89383;-56
2023/09/17 02:35:56;;;;;;;2.90;2.03;;;26.10;53.80;;;;;;5080221;27;88790;-56
2023/09/17 02:38:26;;;;;;;2.50;1.97;;;26.00;54.30;;;;;;5080563;27;87507;-56
2023/09/17 02:40:54;;;;;;;4.73;2.07;;;26.00;54.80;;;;;;5079466;27;89879;-56
2023/09/17 02:43:23;;;;;;;2.40;2.20;;;25.90;50.60;;;;;;5064859;27;89335;-56
2023/09/17 02:45:53;;;;;;;3.07;2.30;;;26.00;55.20;;;;;;5059040;27;89260;-56
2023/09/17 02:48:22;;;;;;;3.27;2.37;;;26.00;53.60;;;;;;5062352;27;88474;-57
2023/09/17 02:50:50;;;;;;;1.97;1.87;;;25.90;55.60;;;;;;5065685;27;88511;-57
2023/09/17 02:53:18;;;;;;;2.43;2.23;;;26.00;54.70;;;;;;5064641;27;88761;-57
2023/09/17 02:55:50;;;;;;;2.53;2.10;;;25.90;57.80;;;;;;5075601;27;90107;-57
2023/09/17 02:58:18;;;;;;;3.03;2.30;;;26.00;57.90;;;;;;5076045;27;87725;-57
2023/09/17 03:00:46;;;;;;;3.33;2.60;;;25.90;49.20;;;;;;5069632;27;88677;-56
2023/09/17 03:03:15;;;;;;;2.77;2.37;;;25.90;49.30;;;;;;5066783;27;89178;-56
2023/09/17 03:05:46;;;;;;;3.10;2.10;;;25.90;49.20;;;;;;5066838;27;89067;-56
2023/09/17 03:08:14;;;;;;;1.77;1.50;;;25.80;49.20;;;;;;5068876;27;87641;-57
2023/09/17 03:10:43;;;;;;;4.40;2.10;;;25.80;49.20;;;;;;5063155;27;89513;-57
2023/09/17 03:13:14;;;;;;;1.90;1.70;;;25.80;49.20;;;;;;5067876;27;90151;-57
2023/09/17 03:15:44;;;;;;;4.17;2.17;;;25.80;49.10;;;;;;5065647;27;89851;-57
2023/09/17 03:18:12;;;;;;;4.37;2.47;;;25.80;49.10;;;;;;5069164;27;87769;-57
2023/09/17 03:20:42;;;;;;;2.87;2.07;;;25.80;49.10;;;;;;5068541;27;89936;-57
2023/09/17 03:23:11;;;;;;;2.67;2.23;;;25.80;49.00;;;;;;5064447;27;87737;-57
2023/09/17 03:25:39;;;;;;;4.37;2.60;;;25.80;49.00;;;;;;5061709;27;88988;-57
2023/09/17 03:28:08;;;;;;;6.47;2.60;;;25.70;48.90;;;;;;5070511;27;87611;-57
2023/09/17 03:30:38;;;;;;;2.43;1.80;;;25.70;48.90;;;;;;5069514;27;89705;-57
2023/09/17 03:33:06;;;;;;;2.53;2.17;;;25.70;48.90;;;;;;5063795;27;89133;-56
2023/09/17 03:35:35;;;;;;;2.30;1.90;;;25.70;49.10;;;;;;5065873;27;89077;-57
2023/09/17 03:38:03;;;;;;;2.90;2.30;;;25.70;48.90;;;;;;5066030;27;89558;-57
2023/09/17 03:40:32;;;;;;;3.43;2.27;;;25.70;48.80;;;;;;5063104;27;88571;-57
2023/09/17 03:43:00;;;;;;;3.87;2.73;;;25.70;56.90;;;;;;5068114;27;89171;-57
2023/09/17 03:45:29;;;;;;;1.93;1.67;;;25.70;60.50;;;;;;5074653;27;88912;-56
2023/09/17 03:47:58;;;;;;;3.10;2.33;;;25.80;67.80;;;;;;5069526;27;87705;-56
2023/09/17 03:50:28;;;;;;;2.07;1.87;;;25.80;58.00;;;;;;5066495;27;89644;-57
2023/09/17 03:52:56;;;;;;;2.53;2.30;;;25.80;62.90;;;;;;5067448;27;89241;-57
2023/09/17 03:55:25;;;;;;;2.23;2.00;;;25.80;66.70;;;;;;5068911;27;88898;-57
2023/09/17 03:57:54;;;;;;;4.00;2.33;;;25.80;64.00;;;;;;5077484;27;87886;-57
2023/09/17 04:00:23;;;;;;;2.63;2.20;;;25.70;66.30;;;;;;5068893;27;89532;-56
2023/09/17 04:02:52;;;;;;;4.77;2.47;;;25.70;70.00;;;;;;5065515;27;90031;-56
2023/09/17 04:05:22;;;;;;;1.97;1.57;;;25.70;65.80;;;;;;5067192;27;89754;-56
2023/09/17 04:07:50;;;;;;;5.03;2.00;;;25.70;62.00;;;;;;5067378;27;89104;-56
2023/09/17 04:10:19;;;;;;;4.10;2.13;;;25.70;63.20;;;;;;5067391;27;89912;-57
2023/09/17 04:12:47;;;;;;;5.07;2.17;;;25.60;65.10;;;;;;5078425;27;89084;-57
2023/09/17 04:15:18;;;;;;;2.20;1.90;;;25.80;64.30;;;;;;5082267;27;88453;-56
2023/09/17 04:17:48;;;;;;;2.30;2.10;;;25.60;64.10;;;;;;5080628;27;87530;-56
2023/09/17 04:20:18;;;;;;;3.00;2.17;;;25.50;65.20;;;;;;5081951;27;88479;-57
2023/09/17 04:22:49;;;;;;;4.90;2.00;;;25.50;69.60;;;;;;5075591;27;89090;-57
2023/09/17 04:25:18;;;;;;;3.30;2.33;;;25.50;69.00;;;;;;5082152;27;88793;-56
2023/09/17 04:27:47;;;;;;;2.80;2.20;;;25.50;71.80;;;;;;5079423;27;87938;-57
2023/09/17 04:30:16;;;;;;;2.53;2.27;;;25.50;70.90;;;;;;5082400;27;89749;-56
2023/09/17 04:32:45;;;;;;;2.30;1.97;;;25.50;71.60;;;;;;5079250;27;89100;-56
2023/09/17 04:35:15;;;;;;;3.90;2.40;;;25.40;70.90;;;;;;5081602;27;87509;-56
2023/09/17 04:37:45;;;;;;;2.33;1.90;;;25.40;73.50;;;;;;5079849;27;87469;-56
2023/09/17 04:40:14;;;;;;;3.77;2.13;;;25.40;71.80;;;;;;5081320;27;89684;-57
2023/09/17 04:42:44;;;;;;;2.00;1.80;;;25.50;78.10;;;;;;5074202;27;89158;-57
2023/09/17 04:45:12;;;;;;;2.07;1.83;;;25.50;76.80;;;;;;5072378;27;88675;-57
2023/09/17 04:47:41;;;;;;;2.07;1.70;;;25.40;75.30;;;;;;5068422;27;89516;-57
2023/09/17 04:50:09;;;;;;;3.27;2.10;;;25.50;74.30;;;;;;5066416;27;89978;-57
2023/09/17 04:52:38;;;;;;;7.40;2.33;;;25.50;75.50;;;;;;5065060;27;89780;-57
2023/09/17 04:55:06;;;;;;;2.00;1.80;;;25.50;81.90;;;;;;5066411;27;89837;-56
2023/09/17 04:57:36;;;;;;;2.00;1.60;;;25.50;83.50;;;;;;5067848;27;88093;-56
2023/09/17 05:00:10;;;;;;;2.20;1.93;;;25.50;48.30;;;;;;5071110;27;89776;-56
2023/09/17 05:02:39;;;;;;;1.50;1.37;;;25.50;48.90;;;;;;5066361;27;88976;-56
2023/09/17 05:05:09;;;;;;;2.30;2.10;;;25.50;48.90;;;;;;5066547;27;88542;-57
2023/09/17 05:07:39;;;;;;;3.33;2.00;;;25.60;48.90;;;;;;5064404;27;88470;-57
2023/09/17 05:10:08;;;;;;;5.33;1.70;;;25.50;48.90;;;;;;5067553;27;89743;-57
2023/09/17 05:12:38;;;;;;;2.03;1.83;;;25.50;48.90;;;;;;5067093;27;88981;-57
2023/09/17 05:15:06;;;;;;;1.93;1.77;;;25.50;48.90;;;;;;5070485;27;88850;-57
2023/09/17 05:17:34;;;;;;;2.70;1.80;;;25.50;49.00;;;;;;5063587;27;88019;-57
2023/09/17 05:20:06;;;;;;;6.80;1.90;;;25.60;49.00;;;;;;5063008;27;89669;-57
2023/09/17 05:22:34;;;;;;;2.23;2.03;;;25.60;48.90;;;;;;5065661;27;89258;-58
2023/09/17 05:25:04;;;;;;;5.70;2.87;;;25.60;48.90;;;;;;5060356;27;88445;-57
2023/09/17 05:27:32;;;;;;;3.40;2.50;;;25.60;49.60;;;;;;5071324;27;87782;-56
2023/09/17 05:30:02;;;;;;;3.40;2.17;;;25.60;49.00;;;;;;5072197;27;89539;-57
2023/09/17 05:32:30;;;;;;;2.13;1.93;;;25.60;49.00;;;;;;5073841;27;88206;-56
2023/09/17 05:34:59;;;;;;;3.00;2.03;;;25.60;49.00;;;;;;5067035;27;88826;-56
2023/09/17 05:37:28;;;;;;;4.33;1.90;;;25.60;49.00;;;;;;5068617;27;87772;-57
2023/09/17 05:39:58;;;;;;;3.00;2.00;;;25.60;49.00;;;;;;5064694;27;89254;-57
2023/09/17 05:42:26;;;;;;;1.53;1.40;;;25.60;49.00;;;;;;5065633;27;90034;-57
2023/09/17 05:44:54;;;;;;;5.80;2.23;;;25.60;49.10;;;;;;5062750;27;88615;-57
2023/09/17 05:47:24;;;;;;;2.90;1.90;;;25.60;49.10;;;;;;5073556;27;89298;-58
2023/09/17 05:49:55;;;;;;;1.83;1.70;;;25.50;49.10;;;;;;5064294;27;88445;-57
2023/09/17 05:52:24;;;;;;;2.30;2.00;;;25.50;49.10;;;;;;5067871;27;89019;-57
2023/09/17 05:54:52;;;;;;;3.03;2.03;;;25.50;49.10;;;;;;5073752;27;88952;-57
2023/09/17 05:57:20;;;;;;;3.03;2.20;;;25.50;49.10;;;;;;5070190;27;87754;-57
2023/09/17 05:59:48;;;;;;;3.03;2.43;;;25.50;49.10;;;;;;5079853;27;89573;-57
2023/09/17 06:02:16;;;;;;;2.70;2.00;;;25.50;49.20;;;;;;5079655;27;88769;-57
2023/09/17 06:04:52;;;;;;;5.20;3.10;;;25.50;49.20;;;;;;5073952;27;88899;-56
2023/09/17 06:07:21;;;;;;;2.60;2.40;;;25.40;49.20;;;;;;5076867;27;87942;-55
2023/09/17 06:09:49;;;;;;;3.53;2.27;;;25.40;49.90;;;;;;5067081;27;89731;-55
2023/09/17 06:12:17;;;;;;;1.97;1.83;;;25.40;49.30;;;;;;5074879;27;89258;-56
2023/09/17 06:14:50;;;;;;;2.30;1.93;;;25.40;49.40;;;;;;5062886;27;88878;-55
2023/09/17 06:17:18;;;;;;;2.30;2.10;;;25.50;49.50;;;;;;5065939;27;87490;-56
2023/09/17 06:19:48;;;;;;;2.10;1.90;;;25.60;49.50;;;;;;5075621;27;89975;-56
2023/09/17 06:22:16;;;;;;;3.63;1.67;;;25.60;49.60;;;;;;5067794;27;88119;-55
2023/09/17 06:24:44;;;;;;;1.70;1.60;;;25.70;49.60;;;;;;5074845;27;88877;-55
2023/09/17 06:27:13;;;;;;;4.17;1.90;;;25.70;49.60;;;;;;5064334;27;87657;-56
2023/09/17 06:29:41;;;;;;;2.27;2.03;;;25.70;49.60;;;;;;5064393;27;88213;-55
2023/09/17 06:32:09;;;;;;;2.93;1.70;;;25.80;49.60;;;;;;5062699;27;90107;-55
2023/09/17 06:34:37;;;;;;;1.60;1.47;;;25.80;49.70;;;;;;5074691;27;89796;-55
2023/09/17 06:37:07;;;;;;;2.50;1.80;;;25.80;50.30;;;;;;5074581;27;87330;-56
2023/09/17 06:39:36;;;;;;;2.03;1.80;;;25.80;49.60;;;;;;5075045;27;89623;-55
2023/09/17 06:42:05;;;;;;;3.30;1.90;;;25.80;49.60;;;;;;5074516;27;89082;-56
2023/09/17 06:44:33;;;;;;;4.23;2.10;;;25.80;49.60;;;;;;5076805;27;88717;-56
2023/09/17 06:47:01;;;;;;;3.93;2.20;;;25.80;49.60;;;;;;5077370;27;88657;-56
2023/09/17 06:49:30;;;;;;;3.10;2.13;;;25.80;49.70;;;;;;5075691;27;89687;-55
2023/09/17 06:51:58;;;;;;;3.00;2.10;;;25.80;49.70;;;;;;5075118;27;88484;-55
2023/09/17 06:54:28;;;;;;;2.23;1.97;;;25.80;49.70;;;;;;5071407;27;91245;-55
2023/09/17 06:56:56;;;;;;;3.30;2.10;;;25.80;49.80;;;;;;5074825;27;88185;-56
2023/09/17 06:59:24;;;;;;;2.77;1.70;;;25.80;49.80;;;;;;5074156;27;89597;-56
2023/09/17 07:01:53;;;;;;;2.97;2.23;;;25.80;49.80;;;;;;5074028;27;89162;-56
2023/09/17 07:04:21;;;;;;;3.33;2.17;;;25.80;49.80;;;;;;5069378;27;88806;-56
2023/09/17 07:06:50;;;;;;;2.63;1.93;;;25.90;49.90;;;;;;5072367;27;87544;-57
2023/09/17 07:09:18;;;;;;;3.50;2.13;;;25.80;49.80;;;;;;5066129;27;89414;-57
2023/09/17 07:11:48;;;;;;;3.03;1.90;;;25.90;49.90;;;;;;5075671;27;88678;-56
2023/09/17 07:14:16;;;;;;;3.33;1.93;;;25.90;50.00;;;;;;5074321;27;87665;-56
2023/09/17 07:16:44;;;;;;;3.00;1.63;;;25.90;50.00;;;;;;5076294;27;87513;-56
2023/09/17 07:19:13;;;;;;;2.17;1.97;;;25.90;50.00;;;;;;5077965;27;89628;-57
2023/09/17 07:21:42;;;;;;;2.87;2.00;;;25.90;50.00;;;;;;5069349;27;90205;-56
2023/09/17 07:24:10;;;;;;;2.10;1.90;;;26.00;50.00;;;;;;5068723;27;89963;-56
2023/09/17 07:26:38;;;;;;;3.70;2.03;;;26.00;50.10;;;;;;5073619;27;87864;-56
2023/09/17 07:29:08;;;;;;;3.47;2.23;;;26.00;50.10;;;;;;5074435;27;89604;-57
2023/09/17 07:31:36;;;;;;;1.87;1.77;;;26.00;50.10;;;;;;5078792;27;88885;-57
2023/09/17 07:34:05;;;;;;;3.67;2.20;;;25.90;50.20;;;;;;5073941;27;89279;-57
2023/09/17 07:36:33;;;;;;;2.03;1.90;;;25.90;50.20;;;;;;5077830;27;88237;-57
2023/09/17 07:39:01;;;;;;;4.70;2.20;;;25.90;50.30;;;;;;5080084;27;89404;-57
2023/09/17 07:41:29;;;;;;;2.53;2.33;;;25.90;50.30;;;;;;5078423;27;89039;-57
2023/09/17 07:43:58;;;;;;;3.97;2.03;;;25.90;50.40;;;;;;5073462;27;88776;-57
2023/09/17 07:46:28;;;;;;;2.20;2.00;;;25.90;50.40;;;;;;5076241;27;88062;-56
2023/09/17 07:48:56;;;;;;;1.77;1.47;;;25.90;51.10;;;;;;5077729;27;89509;-56
2023/09/17 07:51:24;;;;;;;2.10;1.40;;;25.90;50.40;;;;;;5076263;27;88978;-56
2023/09/17 07:53:53;;;;;;;2.20;1.70;;;25.90;50.50;;;;;;5077463;27;88681;-56
2023/09/17 07:56:21;;;;;;;1.93;1.73;;;25.90;51.10;;;;;;5075401;27;87479;-57
2023/09/17 07:58:52;;;;;;;2.27;2.00;;;25.80;50.50;;;;;;5076460;27;88578;-57
2023/09/17 08:01:20;;;;;;;3.13;1.90;;;25.80;50.60;;;;;;5072734;27;89381;-56
2023/09/17 08:03:50;;;;;;;2.43;1.57;;;25.80;50.60;;;;;;5060176;27;89071;-57
2023/09/17 08:06:19;;;;;;;1.83;1.53;;;25.80;50.70;;;;;;5064220;27;88384;-56
2023/09/17 08:08:47;;;;;;;2.77;1.87;;;25.90;50.70;;;;;;5067912;27;89534;-54
2023/09/17 08:11:16;;;;;;;4.43;2.30;;;25.90;50.70;;;;;;5073372;27;89820;-54
2023/09/17 08:13:44;;;;;;;2.20;1.57;;;25.90;50.80;;;;;;5063623;27;89782;-54
2023/09/17 08:16:13;;;;;;;2.27;1.53;;;25.80;50.80;;;;;;5071171;27;87704;-54
2023/09/17 08:18:42;;;;;;;1.80;1.43;;;25.80;50.80;;;;;;5072931;27;89941;-53
2023/09/17 08:21:12;;;;;;;3.43;1.70;;;25.80;50.90;;;;;;5078030;27;89083;-54
2023/09/17 08:23:40;;;;;;;3.07;1.80;;;25.80;50.90;;;;;;5078004;27;88993;-53
2023/09/17 08:26:09;;;;;;;4.73;1.30;;;25.80;51.00;;;;;;5059265;27;87833;-54
2023/09/17 08:28:37;;;;;;;2.40;1.60;;;25.80;51.10;;;;;;5066756;27;89527;-54
2023/09/17 08:31:05;;;;;;;2.73;2.00;;;25.80;51.10;;;;;;5070050;27;89226;-54
2023/09/17 08:33:34;;;;;;;2.17;1.60;;;25.80;51.10;;;;;;5100115;27;89059;-53
2023/09/17 08:36:05;;;;;;;1.43;1.33;;;25.80;51.20;;;;;;5092547;27;87879;-55
2023/09/17 08:38:34;;;;;;;3.07;2.03;;;25.80;51.20;;;;;;5059349;27;89696;-53
2023/09/17 08:41:03;;;;;;;2.77;1.87;;;25.80;51.20;;;;;;5059078;27;88030;-53
2023/09/17 08:43:31;;;;;;;5.07;2.00;;;25.80;51.20;;;;;;5070537;27;88751;-53
2023/09/17 08:46:00;;;;;;;1.83;1.40;;;25.90;51.30;;;;;;5071531;27;88471;-53
2023/09/17 08:48:29;;;;;;;2.20;1.73;;;25.90;51.30;;;;;;5078089;27;89680;-53
2023/09/17 08:50:57;;;;;;;2.20;2.00;;;25.80;51.30;;;;;;5059640;27;89179;-52
2023/09/17 08:53:28;;;;;;;3.33;2.10;;;25.90;51.30;;;;;;5059015;27;88991;-52
2023/09/17 08:55:57;;;;;;;3.67;2.00;;;25.90;51.40;;;;;;5076916;27;87387;-53
2023/09/17 08:58:27;;;;;;;3.70;2.20;;;25.80;51.30;;;;;;5074805;27;89737;-53
2023/09/17 09:00:58;;;;;;;4.37;1.93;;;25.80;51.40;;;;;;5096969;27;90193;-53
2023/09/17 09:03:28;;;;;;;2.17;2.00;;;25.90;51.40;;;;;;5094583;27;89882;-53
2023/09/17 09:05:57;;;;;;;3.73;2.30;;;25.80;51.40;;;;;;5079755;27;87554;-53
2023/09/17 09:08:27;;;;;;;2.70;1.73;;;25.80;51.40;;;;;;5075778;27;88313;-53
2023/09/17 09:10:55;;;;;;;6.87;1.77;;;25.80;51.50;;;;;;5078495;27;89183;-53
2023/09/17 09:13:27;;;;;;;2.70;1.80;;;25.80;51.50;;;;;;5068189;27;88015;-58
2023/09/17 09:15:55;;;;;;;3.67;2.17;;;25.80;51.60;;;;;;5070846;27;87785;-55
2023/09/17 09:18:24;;;;;;;3.10;2.13;;;25.70;51.60;;;;;;5075417;27;89703;-55
2023/09/17 09:20:52;;;;;;;1.70;1.60;;;25.80;51.70;;;;;;5077445;27;88799;-55
2023/09/17 09:23:20;;;;;;;2.47;1.50;;;25.80;51.60;;;;;;5074306;27;88875;-55
2023/09/17 09:25:49;;;;;;;3.10;2.07;;;25.80;51.60;;;;;;5072441;27;89076;-54
2023/09/17 09:28:17;;;;;;;4.70;1.80;;;25.80;51.70;;;;;;5068661;27;89767;-54
2023/09/17 09:30:47;;;;;;;2.20;1.80;;;25.80;51.70;;;;;;5064734;27;89260;-54
2023/09/17 09:33:16;;;;;;;1.97;1.50;;;25.90;51.70;;;;;;5069157;27;88830;-54
2023/09/17 09:35:45;;;;;;;2.37;1.87;;;25.90;51.70;;;;;;5077754;27;87732;-54
2023/09/17 09:38:13;;;;;;;4.53;2.80;;;25.90;51.70;;;;;;5077376;27;89437;-54
2023/09/17 09:40:43;;;;;;;3.93;3.23;;;25.90;51.80;;;;;;5072334;27;89089;-58
2023/09/17 09:43:28;;;;;;;4.37;3.53;;;25.90;51.90;;;;;;5075662;27;89099;-55
2023/09/17 09:46:02;;;;;;;5.37;4.00;;;26.00;52.10;;;;;;5075056;27;87573;-56
2023/09/17 09:48:31;;;;;;;5.30;3.73;;;26.00;52.10;;;;;;5075778;27;88493;-56
2023/09/17 09:50:59;;;;;;;4.27;2.60;;;26.00;52.20;;;;;;5075625;27;90452;-55
2023/09/17 09:53:27;;;;;;;6.93;3.07;;;26.10;52.40;;;;;;5073975;27;89668;-55
2023/09/17 09:55:58;;;;;;;3.00;2.33;;;26.10;52.40;;;;;;5078038;27;87753;-55
2023/09/17 09:58:26;;;;;;;3.60;2.40;;;26.10;52.50;;;;;;5075330;27;89823;-53
2023/09/17 10:00:54;;;;;;;2.30;2.10;;;26.10;52.50;;;;;;5063668;27;89261;-54
2023/09/17 10:03:24;;;;;;;2.93;2.10;;;26.10;52.50;;;;;;5078385;27;87730;-55
2023/09/17 10:05:53;;;;;;;3.33;2.40;;;26.10;52.50;;;;;;5060174;27;87745;-55
2023/09/17 10:08:22;;;;;;;2.60;1.80;;;26.10;52.60;;;;;;5058114;27;89629;-55
2023/09/17 10:10:51;;;;;;;3.73;2.43;;;26.10;52.60;;;;;;5058892;27;88811;-54
2023/09/17 10:13:19;;;;;;;2.30;1.73;;;26.10;52.70;;;;;;5057623;27;88423;-55
2023/09/17 10:15:47;;;;;;;2.60;1.73;;;26.10;52.70;;;;;;5072350;27;87962;-55
2023/09/17 10:18:15;;;;;;;2.60;1.77;;;26.10;52.80;;;;;;5075457;27;89787;-54
2023/09/17 10:20:45;;;;;;;2.83;2.00;;;26.10;52.80;;;;;;5077936;27;87700;-54
2023/09/17 10:23:15;;;;;;;2.07;1.83;;;26.10;52.80;;;;;;5077213;27;89049;-55
2023/09/17 10:25:43;;;;;;;3.00;2.30;;;26.10;53.40;;;;;;5078076;27;87550;-55
2023/09/17 10:28:12;;;;;;;2.70;1.80;;;26.10;52.70;;;;;;5077639;27;89755;-54
2023/09/17 10:30:40;;;;;;;5.10;2.30;;;26.10;52.70;;;;;;5077443;27;88725;-54
2023/09/17 10:33:09;;;;;;;4.07;2.33;;;26.00;52.60;;;;;;5077692;27;88809;-54
2023/09/17 10:35:38;;;;;;;2.63;1.83;;;26.00;52.60;;;;;;5077759;27;87613;-54
2023/09/17 10:38:08;;;;;;;3.60;2.37;;;26.00;52.60;;;;;;5075175;27;89504;-54
2023/09/17 10:40:36;;;;;;;6.77;2.50;;;26.00;52.60;;;;;;5077082;27;88885;-54
2023/09/17 10:43:06;;;;;;;3.70;2.10;;;26.00;52.50;;;;;;5074137;27;89904;-55
2023/09/17 10:45:35;;;;;;;2.53;1.70;;;26.00;52.50;;;;;;5077868;27;87602;-54
2023/09/17 10:48:04;;;;;;;1.83;1.53;;;26.00;52.50;;;;;;5074645;27;89546;-54
2023/09/17 10:50:34;;;;;;;2.27;1.90;;;26.00;52.40;;;;;;5074947;27;88598;-56
2023/09/17 10:53:02;;;;;;;2.30;1.73;;;26.00;52.40;;;;;;5079082;27;87943;-55
2023/09/17 10:55:36;;;;;;;4.30;2.47;;;26.00;52.40;;;;;;5081693;27;87586;-55
2023/09/17 10:58:07;;;;;;;3.20;1.87;;;26.00;52.40;;;;;;5074998;27;90759;-55
2023/09/17 11:00:37;;;;;;;2.50;1.60;;;26.00;52.40;;;;;;5080392;27;89081;-55
2023/09/17 11:03:06;;;;;;;6.57;2.40;;;26.00;52.30;;;;;;5074246;27;87777;-55
2023/09/17 11:05:35;;;;;;;6.63;3.30;;;26.00;52.30;;;;;;5069248;27;89514;-55
2023/09/17 11:08:04;;;;;;;6.37;3.33;;;26.00;52.30;;;;;;5078541;27;89456;-54
2023/09/17 11:10:34;;;;;;;4.27;3.17;;;26.00;52.30;;;;;;5081330;27;88007;-55
2023/09/17 11:13:04;;;;;;;4.57;2.53;;;26.00;52.30;;;;;;5080312;27;88249;-56
2023/09/17 11:15:32;;;;;;;4.03;3.00;;;26.00;52.30;;;;;;5081098;27;88045;-55
2023/09/17 11:18:01;;;;;;;4.70;3.10;;;26.00;52.30;;;;;;5081060;27;88326;-55
2023/09/17 11:20:29;;;;;;;4.77;2.73;;;26.00;52.30;;;;;;5070966;27;89256;-54
2023/09/17 11:22:58;;;;;;;4.97;2.37;;;26.00;52.30;;;;;;5077617;27;88897;-57
2023/09/17 11:25:35;;;;;;;5.47;2.83;;;26.00;52.30;;;;;;5080950;27;87691;-54
2023/09/17 11:28:11;;;;;;;7.23;3.20;;;26.00;52.30;;;;;;5081372;27;89620;-54
2023/09/17 11:30:59;;;;;;;5.87;3.20;;;26.10;52.30;;;;;;5068403;27;88766;-55
2023/09/17 11:33:27;;;;;;;6.03;3.30;;;26.10;52.30;;;;;;5078164;27;92512;-54
2023/09/17 11:35:56;;;;;;;5.43;3.57;;;26.10;52.20;;;;;;5076155;27;89230;-55
2023/09/17 11:38:24;;;;;;;8.00;4.40;;;26.10;52.90;;;;;;5080413;27;88344;-54
2023/09/17 11:41:07;;;;;;;7.63;4.60;;;26.00;52.10;;;;;;5080076;27;88851;-54
2023/09/17 11:43:36;;;;;;;7.57;4.00;;;26.10;52.30;;;;;;5074086;27;88922;-54
2023/09/17 11:46:05;;;;;;;6.47;3.63;;;26.00;52.20;;;;;;5080149;27;87565;-54
2023/09/17 11:48:34;;;;;;;10.03;4.77;;;26.10;52.30;;;;;;5080133;27;89699;-54
2023/09/17 11:51:24;;;;;;;7.13;4.37;;;26.10;52.20;;;;;;5069161;27;88912;-55
2023/09/17 11:53:57;;;;;;;8.37;4.63;;;26.10;52.20;;;;;;5076779;27;88850;-58
2023/09/17 11:56:28;;;;;;;5.27;3.97;;;26.20;52.20;;;;;;5085206;27;88002;-55
2023/09/17 11:59:04;;;;;;;7.07;4.70;;;26.20;52.10;;;;;;5082225;27;89863;-55
2023/09/17 12:01:34;;;;;;;13.07;4.50;;;26.20;52.10;;;;;;5082779;27;89259;-55
2023/09/17 12:04:07;;;;;;;5.73;4.07;;;26.20;52.00;;;;;;5082995;27;88813;-54
2023/09/17 12:06:37;;;;;;;8.27;4.80;;;26.20;52.10;;;;;;5083553;27;87539;-54
2023/09/17 12:09:15;;;;;;;6.57;4.63;;;26.20;52.00;;;;;;5082644;27;89750;-55
2023/09/17 12:11:46;;;;;;;7.63;4.50;;;26.30;52.10;;;;;;5077442;27;88189;-54
2023/09/17 12:14:15;;;;;;;8.53;4.00;;;26.30;52.00;;;;;;5082990;27;88943;-55
2023/09/17 12:16:43;;;;;;;6.40;4.27;;;26.30;52.00;;;;;;5082278;27;87710;-53
2023/09/17 12:19:11;;;;;;;8.83;5.53;;;26.30;52.00;;;;;;5082608;27;89739;-53
2023/09/17 12:21:50;;;;;;;6.23;4.70;;;26.30;52.00;;;;;;5081601;27;89843;-56
2023/09/17 12:24:23;;;;;;;10.93;5.13;;;26.30;52.00;;;;;;5072728;27;89791;-55
2023/09/17 12:27:29;;;;;;;6.07;3.67;;;26.30;52.00;;;;;;5082818;27;87455;-54
2023/09/17 12:29:58;;;;;;;9.37;4.57;;;26.30;52.00;;;;;;5062341;27;89728;-54
2023/09/17 12:32:34;;;;;;;8.70;4.70;;;26.30;52.00;;;;;;5070370;27;88989;-55
2023/09/17 12:35:03;;;;;;;5.93;3.90;;;26.30;52.00;;;;;;5082835;27;88955;-54
2023/09/17 12:37:31;;;;;;;6.60;4.17;;;26.30;52.60;;;;;;5083180;27;87558;-54
2023/09/17 12:40:00;;;;;;;8.23;3.77;;;26.30;52.00;;;;;;5082951;27;89827;-54
2023/09/17 12:42:29;;;;;;;7.47;4.40;;;26.30;51.90;;;;;;5082748;27;89149;-54
2023/09/17 12:44:57;;;;;;;9.70;5.07;;;26.30;52.00;;;;;;5093914;27;88616;-54
2023/09/17 12:47:26;;;;;;;9.77;5.23;;;26.30;51.90;;;;;;5103491;27;87997;-54
2023/09/17 12:49:55;;;;;;;6.90;4.53;;;26.30;52.00;;;;;;5103038;27;89979;-55
2023/09/17 12:52:24;;;;;;;11.57;4.83;;;26.30;51.90;;;;;;5103102;27;89198;-55
2023/09/17 12:54:55;;;;;;;5.93;4.23;;;26.30;51.90;;;;;;5097065;27;88974;-54
2023/09/17 12:57:23;;;;;;;8.10;4.37;;;26.30;51.90;;;;;;5082487;27;87906;-54